EDT,Max TemperatureF,Mean TemperatureF,Min TemperatureF,Max Dew PointF,MeanDew PointF,Min DewpointF,Max Humidity, Mean Humidity, Min Humidity, Max Sea Level PressureIn, Mean Sea Level PressureIn, Min Sea Level PressureIn, Max VisibilityMiles, Mean VisibilityMiles, Min VisibilityMiles, Max Wind SpeedMPH, Mean Wind SpeedMPH, Max Gust SpeedMPH,PrecipitationIn, CloudCover, Events, WindDirDegrees
2013-3-1,32,30,27,27,21,18,83,72,66,30.10,30.03,29.94,10,10,10,12,8,16,0.00,8,,355
2013-3-2,28,26,25,21,19,17,79,72,67,30.08,30.06,30.03,10,9,3,12,7,,0.00,8,Snow,336
2013-3-3,30,24,19,18,15,12,84,66,45,30.06,30.04,30.00,10,10,7,12,5,17,0.00,6,Snow,311
2013-3-4,35,26,17,23,18,13,85,69,46,30.15,30.10,30.06,10,10,10,7,2,,0.00,0,,295
2013-3-5,32,29,26,24,23,21,86,78,70,30.11,29.93,29.78,10,10,10,17,7,24,0.00,6,,76
2013-3-6,41,34,28,28,26,23,80,73,59,30.21,30.04,29.78,10,10,7,15,8,22,0.00,5,,18
2013-3-7,38,34,30,30,26,19,84,72,57,30.39,30.30,30.20,10,9,7,10,4,16,0.00,8,,316
2013-3-8,43,32,22,26,23,19,89,69,46,30.49,30.44,30.39,10,10,7,8,1,,0.00,0,,73
2013-3-9,46,36,25,32,28,23,90,76,47,30.40,30.26,30.03,10,9,4,10,3,,0.00,1,,110
2013-3-10,65,49,33,42,36,31,92,55,33,30.03,29.92,29.80,10,10,7,18,6,28,0.00,3,Rain,171
2013-3-11,56,47,38,48,42,30,88,74,57,29.83,29.68,29.49,10,9,4,18,12,29,0.00,8,Rain,200
2013-3-12,38,35,32,32,28,24,85,75,62,29.94,29.86,29.74,10,10,4,18,11,30,0.00,7,Snow,242
2013-3-13,32,30,27,27,20,15,86,66,54,30.21,30.04,29.89,10,9,1,17,10,25,0.00,6,Snow,276
2013-3-14,42,32,23,22,19,15,77,58,40,30.27,30.20,30.10,10,10,10,14,7,18,0.00,1,,268
2013-3-15,44,38,32,37,30,19,91,76,58,30.10,29.93,29.83,10,7,2,12,7,17,0.00,6,Rain,253
2013-3-16,35,32,30,33,28,24,94,86,74,30.05,29.85,29.73,10,7,2,12,6,20,0.00,8,Rain-Snow,29
2013-3-17,32,28,24,24,19,15,77,66,50,30.24,30.17,30.05,10,10,10,14,6,21,0.00,4,,46
2013-3-18,38,33,28,36,29,20,94,83,70,30.15,29.79,29.55,10,6,1,16,10,26,0.00,6,Rain-Snow,97
2013-3-19,35,30,24,32,18,13,87,62,48,29.96,29.82,29.66,10,9,2,25,15,33,0.00,6,Rain-Snow,260
2013-3-20,31,25,19,19,14,8,75,58,45,29.96,29.94,29.91,10,10,10,17,10,25,0.00,5,Snow,271
2013-3-21,32,24,17,22,17,12,83,70,55,29.95,29.91,29.89,10,10,5,16,9,23,0.00,6,Snow,270
2013-3-22,42,34,27,23,19,16,80,57,39,30.02,29.98,29.95,10,10,10,14,8,17,0.00,5,,282
2013-3-23,40,30,21,24,22,18,87,70,47,30.09,30.05,30.02,10,10,5,8,2,,0.00,2,,318
2013-3-24,35,30,24,26,24,21,89,74,60,30.02,29.82,29.57,10,10,5,18,6,28,0.00,5,,63
2013-3-25,38,34,31,32,27,23,89,76,62,29.90,29.65,29.51,10,6,1,15,10,23,0.00,8,Rain-Snow,15
2013-3-26,43,38,33,30,28,26,80,70,54,30.13,30.02,29.90,10,10,7,13,7,17,0.00,8,Rain,303
2013-3-27,46,39,32,30,25,21,84,60,37,30.23,30.17,30.13,10,10,10,15,8,23,0.00,5,,285
2013-3-28,52,41,30,28,24,21,72,52,33,30.27,30.24,30.22,10,10,10,12,5,18,0.00,5,,292
2013-3-29,52,39,26,26,21,16,81,51,24,30.29,30.25,30.20,10,10,10,9,3,16,0.00,0,,301
2013-3-30,56,41,26,30,23,16,81,49,24,30.23,30.12,29.94,10,10,10,14,3,17,0.00,0,,240
2013-3-31,60,51,42,44,33,28,84,56,31,29.94,29.74,29.65,10,9,5,20,6,28,0.00,5,Rain,232